createdAt,value
2019-02-24T00:00:41.350Z,19.19
2019-02-24T00:01:51.840Z,19.19
2019-02-24T00:02:48.463Z,19.19
2019-02-24T00:03:45.407Z,19.12
2019-02-24T00:04:42.006Z,19.19
2019-02-24T00:05:38.647Z,19.12
2019-02-24T00:06:35.320Z,19.12
2019-02-24T00:07:32.434Z,19.12
2019-02-24T00:08:29.211Z,19.12
2019-02-24T00:09:26.330Z,19.12
2019-02-24T00:10:22.986Z,19.12
2019-02-24T00:11:19.851Z,19.12
2019-02-24T00:12:16.743Z,19.06
2019-02-24T00:13:13.410Z,19.06
2019-02-24T00:14:10.168Z,19.06
2019-02-24T00:15:07.089Z,19.06
2019-02-24T00:16:03.723Z,19.06
2019-02-24T00:17:00.350Z,19.06
2019-02-24T00:17:56.955Z,19.06
2019-02-24T00:18:53.549Z,19.06
2019-02-24T00:19:50.579Z,19.06
2019-02-24T00:20:47.578Z,19.06
2019-02-24T00:21:44.275Z,19.06
2019-02-24T00:22:40.939Z,19.00
2019-02-24T00:23:37.670Z,19.00
2019-02-24T00:24:34.294Z,19.00
2019-02-24T00:25:30.899Z,19.00
2019-02-24T00:26:28.048Z,19.00
2019-02-24T00:27:24.733Z,19.00
2019-02-24T00:28:21.410Z,19.00
2019-02-24T00:29:18.211Z,19.00
2019-02-24T00:30:15.051Z,19.00
2019-02-24T00:31:11.742Z,19.00
2019-02-24T00:32:08.451Z,18.94
2019-02-24T00:33:05.063Z,18.94
2019-02-24T00:34:01.947Z,18.94
2019-02-24T00:34:58.634Z,18.94
2019-02-24T00:35:55.242Z,18.94
2019-02-24T00:36:51.918Z,18.94
2019-02-24T00:37:48.557Z,18.94
2019-02-24T00:38:45.263Z,18.94
2019-02-24T00:39:41.962Z,18.94
2019-02-24T00:40:38.634Z,18.94
2019-02-24T00:41:35.382Z,18.94
2019-02-24T00:42:32.105Z,18.87
2019-02-24T00:43:28.718Z,18.87
2019-02-24T00:44:25.818Z,18.87
2019-02-24T00:45:22.514Z,18.87
2019-02-24T00:46:19.273Z,18.87
2019-02-24T00:47:15.995Z,18.87
2019-02-24T00:48:12.615Z,18.87
2019-02-24T00:49:09.387Z,18.87
2019-02-24T00:50:06.049Z,18.87
2019-02-24T00:51:02.674Z,18.81
2019-02-24T00:51:59.311Z,18.81
2019-02-24T00:52:55.959Z,18.81
2019-02-24T00:53:52.654Z,18.81
2019-02-24T00:54:49.239Z,18.81
2019-02-24T00:55:45.907Z,18.81
2019-02-24T00:56:42.569Z,18.81
2019-02-24T00:57:39.450Z,18.81
2019-02-24T00:58:36.177Z,18.81
2019-02-24T00:59:32.882Z,18.81
2019-02-24T01:00:29.490Z,18.81
2019-02-24T01:01:26.288Z,18.75
2019-02-24T01:02:22.927Z,18.75
2019-02-24T01:03:19.543Z,18.75
2019-02-24T01:04:16.150Z,18.75
2019-02-24T01:05:12.771Z,18.75
2019-02-24T01:06:09.540Z,18.75
2019-02-24T01:07:06.223Z,18.75
2019-02-24T01:08:02.878Z,18.75
2019-02-24T01:09:00.034Z,18.75
2019-02-24T01:09:56.720Z,18.75
2019-02-24T01:10:53.397Z,18.69
2019-02-24T01:11:50.143Z,18.69
2019-02-24T01:12:46.874Z,18.69
2019-02-24T01:13:43.478Z,18.69
2019-02-24T01:14:40.368Z,18.69
2019-02-24T01:15:36.980Z,18.69
2019-02-24T01:16:33.747Z,18.69
2019-02-24T01:17:30.820Z,18.69
2019-02-24T01:18:27.458Z,18.69
2019-02-24T01:19:24.063Z,18.69
2019-02-24T01:20:20.667Z,18.69
2019-02-24T01:21:17.579Z,18.69
2019-02-24T01:22:14.202Z,18.62
2019-02-24T01:23:10.859Z,18.62
2019-02-24T01:24:07.467Z,18.62
2019-02-24T01:25:04.616Z,18.62
2019-02-24T01:26:01.373Z,18.62
2019-02-24T01:26:58.076Z,18.62
2019-02-24T01:27:54.683Z,18.62
2019-02-24T01:28:51.348Z,18.62
2019-02-24T01:29:48.266Z,18.62
2019-02-24T01:30:44.865Z,18.62
2019-02-24T01:31:41.479Z,18.62
2019-02-24T01:32:38.119Z,18.62
2019-02-24T01:33:34.746Z,18.56
2019-02-24T01:34:31.778Z,18.62
2019-02-24T01:35:28.566Z,18.56
2019-02-24T01:36:25.207Z,18.56
2019-02-24T01:37:22.230Z,18.56
2019-02-24T01:38:18.934Z,18.56
2019-02-24T01:39:15.566Z,18.56
2019-02-24T01:40:12.498Z,18.56
2019-02-24T01:41:09.097Z,18.56
2019-02-24T01:42:06.042Z,18.56
2019-02-24T01:43:02.711Z,18.56
2019-02-24T01:43:59.337Z,18.56
2019-02-24T01:44:56.177Z,18.56
2019-02-24T01:45:52.807Z,18.56
2019-02-24T01:46:49.427Z,18.56
2019-02-24T01:47:46.032Z,18.56
2019-02-24T01:48:42.642Z,18.50
2019-02-24T01:49:39.470Z,18.50
2019-02-24T01:50:36.155Z,18.50
2019-02-24T01:51:33.019Z,18.50
2019-02-24T01:52:29.729Z,18.50
2019-02-24T01:53:26.456Z,18.50
2019-02-24T01:54:23.074Z,18.50
2019-02-24T01:55:19.814Z,18.50
2019-02-24T01:56:16.423Z,18.50
2019-02-24T01:57:13.125Z,18.50
2019-02-24T01:58:09.751Z,18.50
2019-02-24T01:59:06.646Z,18.50
2019-02-24T02:00:03.289Z,18.50
2019-02-24T02:00:59.893Z,18.50
2019-02-24T02:01:56.498Z,18.44
2019-02-24T02:02:53.177Z,18.50
2019-02-24T02:03:49.945Z,18.44
2019-02-24T02:04:46.629Z,18.44
2019-02-24T02:05:43.257Z,18.44
2019-02-24T02:06:39.847Z,18.44
2019-02-24T02:07:36.466Z,18.44
2019-02-24T02:08:33.482Z,18.44
2019-02-24T02:09:30.367Z,18.44
2019-02-24T02:10:27.059Z,18.44
2019-02-24T02:11:23.674Z,18.44
2019-02-24T02:12:20.598Z,18.44
2019-02-24T02:13:17.216Z,18.44
2019-02-24T02:14:14.267Z,18.44
2019-02-24T02:15:10.907Z,18.44
2019-02-24T02:16:07.519Z,18.44
2019-02-24T02:17:04.465Z,18.44
2019-02-24T02:18:01.178Z,18.44
2019-02-24T02:18:57.954Z,18.37
2019-02-24T02:19:54.666Z,18.37
2019-02-24T02:20:51.386Z,18.37
2019-02-24T02:21:48.013Z,18.37
2019-02-24T02:22:44.942Z,18.37
2019-02-24T02:23:41.653Z,18.37
2019-02-24T02:24:38.472Z,18.37
2019-02-24T02:25:35.407Z,18.37
2019-02-24T02:26:32.018Z,18.37
2019-02-24T02:27:28.706Z,18.37
2019-02-24T02:28:25.310Z,18.37
2019-02-24T02:29:22.259Z,18.37
2019-02-24T02:30:18.963Z,18.37
2019-02-24T02:31:15.657Z,18.37
2019-02-24T02:32:12.324Z,18.37
2019-02-24T02:33:09.023Z,18.37
2019-02-24T02:34:05.751Z,18.37
2019-02-24T02:35:02.569Z,18.37
2019-02-24T02:35:59.269Z,18.37
2019-02-24T02:36:55.874Z,18.37
2019-02-24T02:37:52.467Z,18.37
2019-02-24T02:38:49.293Z,18.31
2019-02-24T02:39:45.917Z,18.31
2019-02-24T02:40:42.607Z,18.31
2019-02-24T02:41:39.223Z,18.31
2019-02-24T02:42:36.346Z,18.31
2019-02-24T02:43:33.210Z,18.31
2019-02-24T02:44:29.814Z,18.31
2019-02-24T02:45:26.454Z,18.31
2019-02-24T02:46:23.080Z,18.31
2019-02-24T02:47:19.678Z,18.31
2019-02-24T02:48:16.482Z,18.31
2019-02-24T02:49:13.120Z,18.31
2019-02-24T02:50:09.738Z,18.31
2019-02-24T02:51:06.362Z,18.31
2019-02-24T02:52:02.982Z,18.31
2019-02-24T02:52:59.669Z,18.31
2019-02-24T02:53:56.282Z,18.31
2019-02-24T02:54:52.972Z,18.31
2019-02-24T02:55:49.611Z,18.31
2019-02-24T02:56:46.235Z,18.31
2019-02-24T02:57:42.892Z,18.31
2019-02-24T02:58:39.529Z,18.25
2019-02-24T02:59:36.234Z,18.25
2019-02-24T03:00:32.956Z,18.25
2019-02-24T03:01:29.649Z,18.25
2019-02-24T03:02:26.239Z,18.25
2019-02-24T03:03:23.054Z,18.25
2019-02-24T03:04:19.651Z,18.25
2019-02-24T03:05:16.254Z,18.25
2019-02-24T03:06:38.209Z,18.25
2019-02-24T03:07:40.042Z,18.25
2019-02-24T03:08:50.291Z,18.25
2019-02-24T03:09:47.026Z,18.25
2019-02-24T03:10:43.619Z,18.25
2019-02-24T03:11:40.274Z,18.25
2019-02-24T03:12:37.042Z,18.25
2019-02-24T03:13:33.657Z,18.25
2019-02-24T03:14:30.405Z,18.25
2019-02-24T03:15:27.014Z,18.25
2019-02-24T03:16:26.647Z,18.25
2019-02-24T03:17:23.751Z,18.25
2019-02-24T03:18:20.374Z,18.19
2019-02-24T03:19:16.966Z,18.19
2019-02-24T03:20:13.567Z,18.19
2019-02-24T03:21:10.174Z,18.19
2019-02-24T03:22:07.134Z,18.19
2019-02-24T03:23:03.745Z,18.19
2019-02-24T03:24:00.362Z,18.19
2019-02-24T03:24:56.980Z,18.19
2019-02-24T03:25:53.671Z,18.19
2019-02-24T03:26:50.284Z,18.19
2019-02-24T03:27:47.034Z,18.19
2019-02-24T03:28:43.773Z,18.19
2019-02-24T03:29:40.607Z,18.19
2019-02-24T03:30:37.316Z,18.19
2019-02-24T03:31:33.971Z,18.19
2019-02-24T03:32:31.114Z,18.19
2019-02-24T03:33:27.859Z,18.19
2019-02-24T03:34:24.959Z,18.19
2019-02-24T03:35:21.546Z,18.19
2019-02-24T03:36:18.166Z,18.19
2019-02-24T03:37:15.146Z,18.19
2019-02-24T03:38:11.779Z,18.19
2019-02-24T03:39:08.461Z,18.19
2019-02-24T03:40:05.451Z,18.19
2019-02-24T03:41:02.193Z,18.19
2019-02-24T03:41:58.851Z,18.12
2019-02-24T03:42:55.488Z,18.19
2019-02-24T03:43:52.197Z,18.12
2019-02-24T03:44:48.795Z,18.12
2019-02-24T03:45:45.422Z,18.12
2019-02-24T03:46:42.022Z,18.12
2019-02-24T03:47:38.722Z,18.12
2019-02-24T03:48:35.406Z,18.12
2019-02-24T03:49:32.002Z,18.12
2019-02-24T03:50:28.590Z,18.12
2019-02-24T03:51:25.186Z,18.12
2019-02-24T03:52:21.787Z,18.12
2019-02-24T03:53:18.389Z,18.12
2019-02-24T03:54:15.192Z,18.12
2019-02-24T03:55:11.787Z,18.12
2019-02-24T03:56:08.480Z,18.12
2019-02-24T03:57:05.074Z,18.12
2019-02-24T03:58:01.707Z,18.12
2019-02-24T03:58:58.419Z,18.12
2019-02-24T03:59:55.226Z,18.12
2019-02-24T04:00:51.830Z,18.06
2019-02-24T04:01:48.465Z,18.06
2019-02-24T04:02:45.301Z,18.06
2019-02-24T04:03:41.905Z,18.06
2019-02-24T04:04:38.911Z,18.06
2019-02-24T04:05:35.618Z,18.06
2019-02-24T04:06:32.214Z,18.06
2019-02-24T04:07:28.845Z,18.06
2019-02-24T04:08:25.544Z,18.06
2019-02-24T04:09:22.142Z,18.06
2019-02-24T04:10:18.853Z,18.06
2019-02-24T04:11:15.543Z,18.06
2019-02-24T04:12:12.141Z,18.06
2019-02-24T04:13:08.771Z,18.06
2019-02-24T04:14:05.693Z,18.06
2019-02-24T04:15:02.286Z,18.06
2019-02-24T04:15:58.882Z,18.06
2019-02-24T04:16:55.483Z,18.06
2019-02-24T04:17:52.095Z,18.06
2019-02-24T04:18:48.991Z,18.06
2019-02-24T04:19:45.591Z,18.06
2019-02-24T04:20:42.198Z,18.06
2019-02-24T04:21:38.790Z,18.06
2019-02-24T04:22:35.383Z,18.00
2019-02-24T04:23:32.016Z,18.00
2019-02-24T04:24:28.593Z,18.06
2019-02-24T04:25:25.618Z,18.00
2019-02-24T04:26:22.235Z,18.00
2019-02-24T04:27:18.920Z,18.00
2019-02-24T04:28:15.677Z,18.00
2019-02-24T04:29:12.261Z,18.00
2019-02-24T04:30:08.867Z,18.00
2019-02-24T04:31:05.442Z,18.00
2019-02-24T04:32:05.303Z,18.00
2019-02-24T04:33:02.007Z,18.00
2019-02-24T04:33:58.878Z,18.00
2019-02-24T04:34:55.484Z,18.00
2019-02-24T04:35:52.090Z,18.00
2019-02-24T04:36:48.704Z,18.00
2019-02-24T04:37:45.306Z,18.00
2019-02-24T04:38:41.959Z,18.00
2019-02-24T04:39:38.602Z,18.00
2019-02-24T04:40:35.448Z,18.00
2019-02-24T04:41:32.067Z,18.00
2019-02-24T04:42:28.666Z,18.00
2019-02-24T04:43:25.258Z,18.00
2019-02-24T04:44:21.898Z,18.00
2019-02-24T04:45:18.613Z,18.00
2019-02-24T04:46:15.322Z,18.00
2019-02-24T04:47:11.910Z,17.94
2019-02-24T04:48:08.513Z,17.94
2019-02-24T04:49:05.116Z,17.94
2019-02-24T04:50:01.775Z,18.00
2019-02-24T04:50:58.463Z,17.69
2019-02-24T04:51:55.078Z,17.19
2019-02-24T04:52:51.794Z,16.94
2019-02-24T04:53:48.488Z,16.75
2019-02-24T04:54:45.383Z,16.56
2019-02-24T04:55:42.417Z,16.56
2019-02-24T04:56:39.052Z,16.81
2019-02-24T04:57:35.742Z,17.06
2019-02-24T04:58:32.377Z,17.31
2019-02-24T04:59:34.929Z,17.50
2019-02-24T05:00:27.690Z,17.69
2019-02-24T05:01:24.300Z,17.81
2019-02-24T05:02:20.898Z,17.94
2019-02-24T05:03:17.505Z,18.00
2019-02-24T05:04:14.100Z,18.12
2019-02-24T05:05:10.715Z,18.44
2019-02-24T05:06:07.705Z,19.44
2019-02-24T05:07:04.317Z,21.25
2019-02-24T05:08:00.966Z,23.50
2019-02-24T05:08:57.750Z,25.75
2019-02-24T05:09:54.442Z,27.62
2019-02-24T05:10:51.075Z,29.06
2019-02-24T05:11:47.710Z,30.06
2019-02-24T05:12:44.327Z,30.88
2019-02-24T05:13:41.064Z,31.44
2019-02-24T05:14:37.722Z,31.87
2019-02-24T05:15:34.370Z,32.19
2019-02-24T05:16:30.978Z,32.50
2019-02-24T05:17:27.945Z,32.81
2019-02-24T05:18:24.626Z,33.06
2019-02-24T05:19:21.510Z,33.38
2019-02-24T05:20:18.112Z,33.63
2019-02-24T05:21:14.739Z,33.94
2019-02-24T05:22:11.330Z,34.25
2019-02-24T05:23:07.917Z,34.56
2019-02-24T05:24:04.534Z,34.88
2019-02-24T05:25:01.595Z,35.13
2019-02-24T05:25:58.292Z,35.44
2019-02-24T05:26:54.931Z,35.63
2019-02-24T05:27:51.618Z,35.88
2019-02-24T05:28:48.226Z,36.13
2019-02-24T05:29:46.413Z,36.31
2019-02-24T05:30:43.190Z,36.56
2019-02-24T05:31:39.834Z,36.75
2019-02-24T05:32:36.467Z,36.94
2019-02-24T05:33:33.095Z,37.13
2019-02-24T05:34:29.771Z,37.25
2019-02-24T05:35:26.458Z,37.44
2019-02-24T05:36:23.102Z,37.56
2019-02-24T05:37:19.828Z,37.75
2019-02-24T05:38:16.442Z,37.94
2019-02-24T05:39:13.033Z,38.06
2019-02-24T05:40:09.975Z,38.25
2019-02-24T05:41:06.570Z,38.38
2019-02-24T05:42:03.183Z,38.56
2019-02-24T05:42:59.810Z,38.69
2019-02-24T05:43:56.460Z,38.81
2019-02-24T05:44:53.150Z,38.94
2019-02-24T05:45:49.807Z,39.13
2019-02-24T05:46:46.410Z,39.31
2019-02-24T05:47:43.166Z,39.50
2019-02-24T05:48:40.143Z,39.63
2019-02-24T05:49:36.727Z,39.81
2019-02-24T05:50:33.512Z,39.94
2019-02-24T05:51:30.208Z,40.06
2019-02-24T05:52:26.818Z,40.25
2019-02-24T05:53:23.470Z,40.44
2019-02-24T05:54:20.062Z,40.63
2019-02-24T05:55:16.678Z,40.63
2019-02-24T05:56:13.279Z,40.44
2019-02-24T05:57:10.034Z,40.19
2019-02-24T05:58:06.686Z,40.00
2019-02-24T05:59:03.302Z,39.81
2019-02-24T05:59:59.906Z,39.69
2019-02-24T06:00:56.525Z,39.56
2019-02-24T06:01:53.289Z,39.50
2019-02-24T06:02:50.010Z,39.44
2019-02-24T06:03:47.131Z,39.38
2019-02-24T06:04:44.095Z,39.38
2019-02-24T06:05:40.786Z,39.31
2019-02-24T06:06:37.386Z,39.25
2019-02-24T06:07:34.340Z,39.13
2019-02-24T06:08:31.014Z,38.94
2019-02-24T06:09:28.090Z,38.44
2019-02-24T06:10:24.791Z,37.56
2019-02-24T06:11:21.384Z,36.31
2019-02-24T06:12:18.118Z,34.88
2019-02-24T06:13:14.759Z,33.69
2019-02-24T06:14:11.703Z,33.25
2019-02-24T06:15:08.391Z,33.94
2019-02-24T06:16:04.988Z,35.25
2019-02-24T06:17:01.611Z,36.63
2019-02-24T06:17:58.422Z,37.88
2019-02-24T06:18:55.046Z,38.75
2019-02-24T06:19:51.673Z,38.94
2019-02-24T06:20:48.523Z,38.75
2019-02-24T06:21:45.122Z,38.56
2019-02-24T06:22:41.766Z,38.44
2019-02-24T06:23:38.491Z,38.25
2019-02-24T06:24:35.102Z,38.06
2019-02-24T06:25:31.722Z,37.94
2019-02-24T06:26:30.150Z,37.75
2019-02-24T06:27:26.990Z,37.63
2019-02-24T06:28:24.249Z,37.50
2019-02-24T06:29:20.949Z,37.38
2019-02-24T06:30:17.639Z,37.25
2019-02-24T06:31:14.402Z,37.13
2019-02-24T06:32:11.035Z,37.00
2019-02-24T06:33:07.901Z,36.94
2019-02-24T06:34:04.604Z,36.88
2019-02-24T06:35:01.326Z,36.81
2019-02-24T06:35:58.038Z,36.75
2019-02-24T06:36:54.670Z,36.69
2019-02-24T06:37:51.338Z,36.69
2019-02-24T06:38:47.986Z,36.63
2019-02-24T06:39:44.577Z,36.63
2019-02-24T06:40:41.181Z,36.56
2019-02-24T06:41:37.964Z,36.50
2019-02-24T06:42:34.652Z,36.50
2019-02-24T06:43:31.270Z,36.50
2019-02-24T06:44:27.941Z,36.44
2019-02-24T06:45:25.176Z,36.44
2019-02-24T06:46:21.766Z,36.38
2019-02-24T06:47:18.479Z,36.38
2019-02-24T06:48:15.175Z,36.31
2019-02-24T06:49:11.795Z,36.31
2019-02-24T06:50:08.607Z,36.25
2019-02-24T06:51:07.214Z,36.25
2019-02-24T06:52:03.824Z,36.19
2019-02-24T06:53:00.529Z,36.13
2019-02-24T06:53:57.142Z,36.94
2019-02-24T06:54:53.869Z,35.88
2019-02-24T06:55:50.930Z,33.44
2019-02-24T06:56:47.529Z,32.00
2019-02-24T06:57:44.177Z,33.06
2019-02-24T06:58:40.886Z,34.25
2019-02-24T06:59:37.615Z,34.81
2019-02-24T07:00:34.257Z,35.06
2019-02-24T07:01:30.853Z,35.25
2019-02-24T07:02:27.449Z,35.63
2019-02-24T07:03:24.118Z,36.25
2019-02-24T07:04:20.829Z,36.81
2019-02-24T07:05:17.458Z,37.13
2019-02-24T07:06:14.099Z,37.13
2019-02-24T07:07:10.759Z,36.81
2019-02-24T07:08:07.374Z,35.88
2019-02-24T07:09:04.010Z,34.38
2019-02-24T07:10:00.755Z,32.69
2019-02-24T07:10:57.410Z,32.06
2019-02-24T07:11:53.998Z,32.75
2019-02-24T07:12:50.606Z,33.94
2019-02-24T07:13:47.315Z,35.19
2019-02-24T07:14:44.050Z,36.31
2019-02-24T07:15:40.819Z,37.25
2019-02-24T07:16:37.445Z,37.94
2019-02-24T07:17:34.086Z,38.44
2019-02-24T07:18:30.678Z,38.94
2019-02-24T07:19:27.302Z,39.38
2019-02-24T07:20:24.105Z,39.69
2019-02-24T07:21:20.723Z,39.94
2019-02-24T07:22:17.319Z,40.12
2019-02-24T07:23:13.952Z,40.38
2019-02-24T07:24:10.565Z,40.56
2019-02-24T07:25:07.211Z,40.69
2019-02-24T07:26:03.933Z,40.56
2019-02-24T07:27:00.795Z,40.31
2019-02-24T07:27:57.506Z,40.06
2019-02-24T07:28:54.170Z,39.81
2019-02-24T07:29:50.794Z,39.63
2019-02-24T07:30:47.400Z,39.50
2019-02-24T07:31:44.170Z,39.38
2019-02-24T07:32:40.907Z,39.25
2019-02-24T07:33:37.535Z,39.19
2019-02-24T07:34:34.262Z,39.06
2019-02-24T07:35:30.915Z,38.88
2019-02-24T07:36:27.644Z,38.56
2019-02-24T07:37:24.339Z,38.06
2019-02-24T07:38:21.068Z,37.38
2019-02-24T07:39:17.696Z,36.38
2019-02-24T07:40:14.362Z,35.19
2019-02-24T07:41:11.047Z,34.06
2019-02-24T07:42:07.722Z,33.31
2019-02-24T07:43:04.646Z,33.56
2019-02-24T07:44:01.363Z,34.75
2019-02-24T07:44:58.002Z,36.25
2019-02-24T07:45:55.290Z,37.75
2019-02-24T07:46:51.939Z,39.13
2019-02-24T07:47:48.553Z,39.88
2019-02-24T07:48:45.203Z,40.06
2019-02-24T07:49:41.910Z,40.06
2019-02-24T07:50:38.638Z,39.88
2019-02-24T07:51:35.457Z,39.69
2019-02-24T07:52:32.286Z,39.50
2019-02-24T07:53:29.007Z,39.38
2019-02-24T07:54:25.702Z,39.19
2019-02-24T07:55:22.358Z,39.13
2019-02-24T07:56:19.081Z,38.94
2019-02-24T07:57:16.167Z,38.63
2019-02-24T07:58:12.881Z,38.06
2019-02-24T07:59:09.571Z,37.38
2019-02-24T08:00:06.202Z,36.44
2019-02-24T08:01:02.982Z,35.31
2019-02-24T08:01:59.632Z,34.19
2019-02-24T08:02:56.519Z,33.31
2019-02-24T08:03:53.128Z,33.25
2019-02-24T08:04:49.776Z,34.31
2019-02-24T08:05:46.486Z,35.88
2019-02-24T08:06:43.299Z,37.44
2019-02-24T08:07:40.013Z,38.81
2019-02-24T08:08:36.874Z,39.56
2019-02-24T08:09:33.547Z,39.75
2019-02-24T08:10:30.255Z,39.69
2019-02-24T08:11:27.216Z,39.50
2019-02-24T08:12:23.947Z,39.38
2019-02-24T08:13:20.664Z,39.19
2019-02-24T08:14:17.282Z,39.06
2019-02-24T08:15:13.986Z,38.88
2019-02-24T08:16:10.787Z,38.63
2019-02-24T08:17:07.506Z,38.25
2019-02-24T08:18:04.175Z,37.75
2019-02-24T08:19:01.110Z,37.00
2019-02-24T08:19:57.856Z,36.06
2019-02-24T08:20:54.573Z,35.00
2019-02-24T08:21:51.362Z,33.88
2019-02-24T08:22:48.002Z,33.13
2019-02-24T08:23:44.827Z,33.19
2019-02-24T08:24:41.495Z,34.31
2019-02-24T08:25:38.120Z,35.88
2019-02-24T08:26:34.819Z,37.50
2019-02-24T08:27:31.775Z,38.75
2019-02-24T08:28:28.761Z,39.31
2019-02-24T08:29:25.520Z,39.44
2019-02-24T08:30:22.275Z,39.31
2019-02-24T08:31:18.998Z,39.13
2019-02-24T08:32:15.712Z,38.94
2019-02-24T08:33:12.518Z,38.69
2019-02-24T08:34:09.246Z,38.38
2019-02-24T08:35:05.895Z,38.00
2019-02-24T08:36:02.506Z,37.44
2019-02-24T08:36:59.426Z,36.81
2019-02-24T08:37:57.307Z,36.00
2019-02-24T08:38:54.048Z,35.13
2019-02-24T08:39:50.654Z,34.13
2019-02-24T08:40:47.522Z,33.25
2019-02-24T08:41:44.160Z,32.56
2019-02-24T08:42:40.819Z,32.75
2019-02-24T08:43:37.534Z,33.81
2019-02-24T08:44:34.216Z,35.31
2019-02-24T08:45:30.929Z,36.94
2019-02-24T08:46:27.629Z,38.19
2019-02-24T08:47:24.341Z,38.75
2019-02-24T08:48:21.014Z,38.88
2019-02-24T08:49:17.764Z,38.81
2019-02-24T08:50:14.604Z,38.63
2019-02-24T08:51:11.336Z,38.44
2019-02-24T08:52:08.081Z,38.25
2019-02-24T08:53:04.780Z,37.88
2019-02-24T08:54:01.520Z,37.44
2019-02-24T08:54:58.305Z,36.81
2019-02-24T08:55:55.019Z,36.06
2019-02-24T08:56:51.632Z,35.25
2019-02-24T08:57:48.252Z,34.25
2019-02-24T08:58:44.878Z,33.31
2019-02-24T08:59:41.551Z,32.69
2019-02-24T09:00:38.275Z,32.81
2019-02-24T09:01:34.922Z,33.94
2019-02-24T09:02:31.690Z,35.50
2019-02-24T09:03:28.405Z,37.13
2019-02-24T09:04:25.152Z,38.31
2019-02-24T09:05:21.788Z,38.81
2019-02-24T09:06:18.466Z,38.88
2019-02-24T09:07:15.450Z,38.75
2019-02-24T09:08:12.183Z,38.63
2019-02-24T09:09:08.952Z,38.44
2019-02-24T09:10:05.684Z,38.19
2019-02-24T09:11:02.479Z,37.88
2019-02-24T09:11:59.120Z,37.44
2019-02-24T09:12:55.844Z,36.94
2019-02-24T09:13:52.513Z,36.25
2019-02-24T09:14:49.318Z,35.44
2019-02-24T09:15:45.988Z,34.50
2019-02-24T09:16:42.754Z,33.56
2019-02-24T09:17:39.557Z,32.75
2019-02-24T09:18:36.568Z,32.50
2019-02-24T09:19:33.219Z,33.19
2019-02-24T09:20:29.890Z,34.56
2019-02-24T09:21:26.665Z,36.06
2019-02-24T09:22:23.388Z,37.56
2019-02-24T09:23:20.009Z,38.44
2019-02-24T09:24:16.894Z,38.69
2019-02-24T09:25:13.591Z,38.63
2019-02-24T09:26:10.328Z,38.50
2019-02-24T09:27:06.955Z,38.25
2019-02-24T09:28:03.814Z,37.94
2019-02-24T09:29:00.515Z,37.56
2019-02-24T09:29:57.313Z,37.00
2019-02-24T09:31:00.432Z,36.44
2019-02-24T09:31:52.588Z,35.63
2019-02-24T09:32:49.727Z,34.81
2019-02-24T09:33:46.444Z,33.81
2019-02-24T09:34:43.098Z,33.00
2019-02-24T09:35:39.826Z,32.38
2019-02-24T09:36:36.571Z,32.56
2019-02-24T09:37:33.206Z,33.69
2019-02-24T09:38:29.934Z,35.25
2019-02-24T09:39:26.685Z,36.81
2019-02-24T09:40:23.545Z,38.00
2019-02-24T09:41:20.283Z,38.44
2019-02-24T09:42:16.910Z,38.50
2019-02-24T09:43:13.724Z,38.38
2019-02-24T09:44:10.472Z,38.19
2019-02-24T09:45:07.380Z,38.00
2019-02-24T09:46:04.123Z,37.69
2019-02-24T09:47:00.857Z,37.31
2019-02-24T09:47:57.566Z,36.81
2019-02-24T09:48:54.290Z,36.19
2019-02-24T09:49:51.055Z,35.44
2019-02-24T09:50:47.804Z,34.63
2019-02-24T09:51:44.563Z,33.75
2019-02-24T09:52:41.322Z,32.94
2019-02-24T09:53:38.030Z,32.25
2019-02-24T09:54:34.678Z,32.25
2019-02-24T09:55:31.374Z,33.13
2019-02-24T09:56:28.114Z,34.50
2019-02-24T09:57:24.815Z,36.00
2019-02-24T09:58:21.639Z,37.38
2019-02-24T09:59:18.394Z,38.06
2019-02-24T10:00:15.347Z,38.19
2019-02-24T10:01:12.087Z,37.94
2019-02-24T10:02:08.819Z,37.50
2019-02-24T10:03:05.491Z,36.94
2019-02-24T10:04:02.534Z,36.19
2019-02-24T10:04:59.148Z,35.25
2019-02-24T10:05:55.811Z,34.38
2019-02-24T10:06:52.603Z,33.44
2019-02-24T10:07:49.282Z,32.69
2019-02-24T10:08:45.977Z,32.00
2019-02-24T10:09:42.582Z,31.50
2019-02-24T10:10:39.731Z,31.00
2019-02-24T10:11:36.658Z,30.50
2019-02-24T10:12:33.583Z,30.06
2019-02-24T10:13:30.311Z,29.69
2019-02-24T10:14:27.052Z,29.44
2019-02-24T10:15:23.719Z,29.25
2019-02-24T10:16:20.421Z,29.06
2019-02-24T10:17:17.535Z,28.87
2019-02-24T10:18:14.144Z,28.75
2019-02-24T10:19:10.867Z,28.56
2019-02-24T10:20:07.612Z,28.44
2019-02-24T10:21:04.341Z,28.25
2019-02-24T10:22:00.962Z,28.12
2019-02-24T10:22:57.922Z,28.00
2019-02-24T10:23:54.570Z,27.87
2019-02-24T10:24:51.286Z,27.81
2019-02-24T10:25:47.989Z,27.69
2019-02-24T10:26:44.713Z,27.62
2019-02-24T10:27:41.632Z,27.50
2019-02-24T10:28:38.503Z,27.44
2019-02-24T10:29:35.238Z,27.31
2019-02-24T10:30:31.885Z,27.25
2019-02-24T10:31:28.580Z,27.13
2019-02-24T10:32:25.207Z,27.06
2019-02-24T10:33:22.079Z,26.94
2019-02-24T10:34:18.779Z,26.87
2019-02-24T10:35:15.481Z,26.81
2019-02-24T10:36:12.315Z,26.75
2019-02-24T10:37:09.010Z,26.62
2019-02-24T10:38:05.892Z,26.56
2019-02-24T10:39:02.632Z,26.50
2019-02-24T10:39:59.273Z,26.37
2019-02-24T10:40:55.987Z,26.31
2019-02-24T10:41:53.747Z,26.25
2019-02-24T10:42:50.554Z,26.19
2019-02-24T10:43:47.207Z,26.06
2019-02-24T10:44:43.798Z,26.00
2019-02-24T10:45:40.444Z,25.94
2019-02-24T10:46:37.191Z,25.88
2019-02-24T10:47:33.832Z,25.81
2019-02-24T10:48:30.610Z,25.75
2019-02-24T10:49:27.272Z,25.69
2019-02-24T10:50:24.085Z,25.62
2019-02-24T10:51:20.801Z,25.56
2019-02-24T10:52:17.534Z,25.50
2019-02-24T10:53:14.377Z,25.44
2019-02-24T10:54:11.033Z,25.37
2019-02-24T10:55:07.944Z,25.31
2019-02-24T10:56:04.955Z,25.25
2019-02-24T10:57:01.667Z,25.19
2019-02-24T10:57:58.515Z,25.12
2019-02-24T10:58:55.164Z,25.06
2019-02-24T10:59:51.806Z,25.00
2019-02-24T11:00:48.438Z,24.94
2019-02-24T11:01:45.223Z,24.87
2019-02-24T11:02:41.882Z,24.81
2019-02-24T11:03:38.611Z,24.81
2019-02-24T11:04:35.344Z,24.75
2019-02-24T11:05:32.150Z,24.69
2019-02-24T11:06:28.865Z,24.63
2019-02-24T11:07:25.518Z,24.56
2019-02-24T11:08:22.339Z,24.50
2019-02-24T11:09:19.002Z,24.50
2019-02-24T11:10:16.203Z,24.44
2019-02-24T11:11:13.063Z,24.37
2019-02-24T11:12:10.156Z,24.31
2019-02-24T11:13:07.110Z,24.25
2019-02-24T11:14:03.824Z,24.25
2019-02-24T11:15:00.554Z,24.19
2019-02-24T11:15:57.200Z,24.12
2019-02-24T11:16:53.945Z,24.12
2019-02-24T11:17:50.630Z,24.06
2019-02-24T11:18:47.274Z,24.00
2019-02-24T11:19:43.914Z,24.00
2019-02-24T11:20:40.691Z,23.94
2019-02-24T11:21:37.378Z,23.87
2019-02-24T11:22:34.039Z,23.87
2019-02-24T11:23:30.796Z,23.81
2019-02-24T11:24:27.507Z,23.75
2019-02-24T11:25:24.775Z,23.69
2019-02-24T11:26:21.579Z,23.69
2019-02-24T11:27:18.210Z,23.62
2019-02-24T11:28:15.144Z,23.62
2019-02-24T11:29:11.919Z,23.56
2019-02-24T11:30:08.757Z,23.56
2019-02-24T11:31:05.429Z,23.50
2019-02-24T11:32:02.171Z,23.50
2019-02-24T11:32:58.949Z,23.44
2019-02-24T11:33:55.574Z,23.38
2019-02-24T11:34:52.204Z,23.38
2019-02-24T11:35:48.871Z,23.31
2019-02-24T11:36:45.502Z,23.25
2019-02-24T11:37:42.304Z,23.25
2019-02-24T11:38:38.931Z,23.19
2019-02-24T11:39:35.572Z,23.19
2019-02-24T11:40:32.285Z,23.12
2019-02-24T11:41:29.120Z,23.12
2019-02-24T11:42:26.085Z,23.06
2019-02-24T11:43:22.802Z,23.06
2019-02-24T11:44:19.426Z,23.00
2019-02-24T11:45:16.157Z,23.00
2019-02-24T11:46:12.982Z,22.94
2019-02-24T11:47:09.721Z,22.94
2019-02-24T11:48:06.478Z,22.87
2019-02-24T11:49:03.203Z,22.87
2019-02-24T11:49:59.950Z,22.81
2019-02-24T11:50:56.687Z,22.81
2019-02-24T11:51:53.433Z,22.75
2019-02-24T11:52:50.067Z,22.75
2019-02-24T11:53:46.820Z,22.69
2019-02-24T11:54:43.521Z,22.69
2019-02-24T11:55:40.175Z,22.69
2019-02-24T11:56:37.142Z,22.62
2019-02-24T11:57:33.867Z,22.62
2019-02-24T11:58:30.650Z,22.56
2019-02-24T11:59:27.385Z,22.56
2019-02-24T12:00:24.091Z,22.50
2019-02-24T12:01:20.971Z,22.50
2019-02-24T12:02:17.754Z,22.44
2019-02-24T12:03:14.503Z,22.44
2019-02-24T12:04:11.217Z,22.44
2019-02-24T12:05:07.974Z,22.37
2019-02-24T12:06:04.651Z,22.37
2019-02-24T12:07:01.575Z,22.37
2019-02-24T12:07:58.305Z,22.31
2019-02-24T12:08:54.966Z,22.31
2019-02-24T12:09:51.639Z,22.25
2019-02-24T12:10:48.375Z,22.25
2019-02-24T12:11:45.136Z,22.19